createdAt,value
2022-08-03T00:00:40.271Z,1.30
2022-08-03T00:01:39.252Z,1.40
2022-08-03T00:02:39.287Z,1.40
2022-08-03T00:03:39.251Z,1.10
2022-08-03T00:04:39.243Z,1.20
2022-08-03T00:05:39.211Z,1.30
2022-08-03T00:06:39.213Z,1.30
2022-08-03T00:07:39.194Z,1.10
2022-08-03T00:08:40.310Z,1.20
2022-08-03T00:09:39.182Z,1.30
2022-08-03T00:10:39.144Z,1.20
2022-08-03T00:11:39.164Z,1.40
2022-08-03T00:12:39.116Z,1.20
2022-08-03T00:13:39.116Z,1.30
2022-08-03T00:14:39.106Z,1.40
2022-08-03T00:15:39.087Z,1.20
2022-08-03T00:16:39.076Z,1.10
2022-08-03T00:17:53.322Z,1.10
2022-08-03T00:18:40.099Z,1.30
2022-08-03T00:19:39.069Z,1.20
2022-08-03T00:20:39.048Z,1.30
2022-08-03T00:21:39.026Z,1.30
2022-08-03T00:22:39.019Z,1.30
2022-08-03T00:23:51.682Z,1.20
2022-08-03T00:24:39.999Z,1.30
2022-08-03T00:25:38.990Z,1.20
2022-08-03T00:26:38.960Z,1.20
2022-08-03T00:27:38.950Z,1.10
2022-08-03T00:28:38.942Z,1.10
2022-08-03T00:29:59.740Z,1.10
2022-08-03T00:30:39.912Z,1.40
2022-08-03T00:31:52.777Z,1.20
2022-08-03T00:32:44.404Z,1.20
2022-08-03T00:33:59.424Z,1.10
2022-08-03T00:34:58.481Z,1.30
2022-08-03T00:35:50.738Z,1.30
2022-08-03T00:36:39.845Z,1.30
2022-08-03T00:37:41.212Z,1.20
2022-08-03T00:38:38.815Z,1.30
2022-08-03T00:39:38.835Z,1.40
2022-08-03T00:40:38.805Z,1.50
2022-08-03T00:41:38.796Z,1.30
2022-08-03T00:42:38.785Z,1.30
2022-08-03T00:43:38.795Z,1.40
2022-08-03T00:44:38.775Z,1.30
2022-08-03T00:45:38.749Z,1.20
2022-08-03T00:46:38.738Z,1.30
2022-08-03T00:47:38.729Z,1.30
2022-08-03T00:48:38.729Z,1.30
2022-08-03T00:49:38.787Z,1.20
2022-08-03T00:50:38.815Z,1.20
2022-08-03T00:51:38.674Z,1.20
2022-08-03T00:52:38.670Z,1.20
2022-08-03T00:53:38.657Z,1.30
2022-08-03T00:54:38.673Z,1.20
2022-08-03T00:55:38.642Z,1.40
2022-08-03T00:56:38.634Z,1.50
2022-08-03T00:57:39.604Z,1.40
2022-08-03T00:58:38.603Z,1.10
2022-08-03T00:59:38.602Z,1.20
2022-08-03T01:00:38.647Z,1.40
2022-08-03T01:01:38.698Z,1.40
2022-08-03T01:02:38.554Z,1.30
2022-08-03T01:03:38.543Z,1.50
2022-08-03T01:04:38.545Z,1.20
2022-08-03T01:05:38.599Z,1.20
2022-08-03T01:06:38.516Z,1.20
2022-08-03T01:07:38.516Z,1.10
2022-08-03T01:08:38.526Z,1.50
2022-08-03T01:09:38.477Z,1.30
2022-08-03T01:10:38.587Z,1.50
2022-08-03T01:12:00.117Z,1.30
2022-08-03T01:12:39.437Z,1.30
2022-08-03T01:14:00.289Z,1.20
2022-08-03T01:14:39.428Z,1.20
2022-08-03T01:15:38.410Z,1.50
2022-08-03T01:16:38.414Z,1.30
2022-08-03T01:17:38.373Z,1.20
2022-08-03T01:18:38.383Z,1.30
2022-08-03T01:19:38.365Z,1.40
2022-08-03T01:20:38.352Z,1.40
2022-08-03T01:21:38.341Z,1.10
2022-08-03T01:22:38.335Z,1.40
2022-08-03T01:23:38.324Z,1.40
2022-08-03T01:24:38.322Z,1.40
2022-08-03T01:25:38.283Z,1.40
2022-08-03T01:26:38.284Z,1.50
2022-08-03T01:27:38.278Z,1.40
2022-08-03T01:28:38.278Z,1.30
2022-08-03T01:29:38.246Z,1.40
2022-08-03T01:30:38.235Z,1.50
2022-08-03T01:32:53.531Z,1.50
2022-08-03T01:33:02.227Z,1.20
2022-08-03T01:33:39.207Z,1.70
2022-08-03T01:34:38.197Z,1.30
2022-08-03T01:35:38.792Z,1.50
2022-08-03T01:36:38.174Z,1.40
2022-08-03T01:37:38.766Z,1.20
2022-08-03T01:38:38.156Z,1.40
2022-08-03T01:39:38.137Z,1.20
2022-08-03T01:40:38.130Z,1.40
2022-08-03T01:41:38.107Z,1.30
2022-08-03T01:42:38.097Z,1.30
2022-08-03T01:44:27.592Z,1.20
2022-08-03T01:44:39.077Z,1.30
2022-08-03T01:45:38.070Z,1.20
2022-08-03T01:46:38.054Z,1.20
2022-08-03T01:47:38.048Z,1.40
2022-08-03T01:48:38.040Z,1.30
2022-08-03T01:49:38.083Z,1.40
2022-08-03T01:50:38.000Z,1.20
2022-08-03T01:51:58.708Z,1.20
2022-08-03T01:52:38.991Z,1.20
2022-08-03T01:53:38.012Z,1.30
2022-08-03T01:54:37.954Z,1.20
2022-08-03T01:55:37.960Z,1.30
2022-08-03T01:56:37.933Z,1.40
2022-08-03T01:58:06.177Z,1.20
2022-08-03T01:58:38.930Z,1.40
2022-08-03T01:59:37.904Z,1.50
2022-08-03T02:00:38.070Z,1.30
2022-08-03T02:02:16.091Z,1.40
2022-08-03T02:02:39.069Z,1.30
2022-08-03T02:03:37.875Z,1.50
2022-08-03T02:04:38.846Z,1.30
2022-08-03T02:05:37.836Z,1.20
2022-08-03T02:07:02.356Z,1.40
2022-08-03T02:07:38.829Z,1.50
2022-08-03T02:08:37.817Z,1.40
2022-08-03T02:09:37.809Z,1.30
2022-08-03T02:11:55.385Z,1.30
2022-08-03T02:12:55.355Z,1.20
2022-08-03T02:13:55.359Z,1.40
2022-08-03T02:14:55.319Z,1.50
2022-08-03T02:15:55.329Z,1.20
2022-08-03T02:16:55.307Z,1.40
2022-08-03T02:17:55.289Z,1.10
2022-08-03T02:18:55.292Z,1.30
2022-08-03T02:19:55.289Z,1.50
2022-08-03T02:20:55.253Z,1.30
2022-08-03T02:21:56.694Z,1.30
2022-08-03T02:22:56.231Z,1.40
2022-08-03T02:23:55.280Z,1.40
2022-08-03T02:24:55.232Z,1.30
2022-08-03T02:25:55.203Z,1.40
2022-08-03T02:26:55.184Z,1.40
2022-08-03T02:27:55.183Z,1.40
2022-08-03T02:28:55.190Z,1.40
2022-08-03T02:29:55.165Z,1.50
2022-08-03T02:30:55.138Z,1.30
2022-08-03T02:31:55.134Z,1.50
2022-08-03T02:32:55.116Z,1.30
2022-08-03T02:33:55.127Z,1.20
2022-08-03T02:34:55.116Z,1.50
2022-08-03T02:35:55.088Z,1.30
2022-08-03T02:36:55.078Z,1.30
2022-08-03T02:37:55.077Z,1.30
2022-08-03T02:38:55.055Z,1.30
2022-08-03T02:39:55.056Z,1.50
2022-08-03T02:40:55.029Z,1.30
2022-08-03T02:41:55.021Z,1.50
2022-08-03T02:42:55.019Z,1.20
2022-08-03T02:44:06.171Z,1.30
2022-08-03T02:44:55.980Z,1.50
2022-08-03T02:45:54.990Z,1.40
2022-08-03T02:46:54.960Z,1.40
2022-08-03T02:47:55.041Z,1.40
2022-08-03T02:48:55.049Z,1.50
2022-08-03T02:49:55.007Z,1.40
2022-08-03T02:50:54.923Z,1.30
2022-08-03T02:51:54.911Z,1.50
2022-08-03T02:52:54.913Z,1.40
2022-08-03T02:53:54.885Z,1.70
2022-08-03T02:54:54.875Z,1.50
2022-08-03T02:55:54.864Z,1.40
2022-08-03T02:56:54.869Z,1.40
2022-08-03T02:57:54.870Z,1.40
2022-08-03T02:58:54.847Z,1.20
2022-08-03T02:59:54.817Z,1.40
2022-08-03T03:00:54.874Z,1.40
2022-08-03T03:01:54.807Z,1.50
2022-08-03T03:02:54.798Z,1.40
2022-08-03T03:03:54.785Z,1.50
2022-08-03T03:05:52.728Z,1.60
2022-08-03T03:05:57.678Z,1.20
2022-08-03T03:06:54.737Z,1.70
2022-08-03T03:07:54.742Z,1.40
2022-08-03T03:08:59.533Z,1.40
2022-08-03T03:09:55.758Z,1.50
2022-08-03T03:10:55.808Z,1.60
2022-08-03T03:11:54.692Z,1.50
2022-08-03T03:12:54.699Z,1.50
2022-08-03T03:13:54.662Z,1.40
2022-08-03T03:14:54.651Z,1.40
2022-08-03T03:15:54.661Z,1.30
2022-08-03T03:16:57.861Z,1.30
2022-08-03T03:17:54.673Z,1.50
2022-08-03T03:18:54.612Z,1.50
2022-08-03T03:19:54.621Z,1.70
2022-08-03T03:20:54.584Z,1.40
2022-08-03T03:21:54.588Z,1.30
2022-08-03T03:22:54.572Z,1.20
2022-08-03T03:23:54.554Z,1.30
2022-08-03T03:24:54.535Z,1.50
2022-08-03T03:25:54.532Z,1.40
2022-08-03T03:26:54.535Z,1.40
2022-08-03T03:27:54.524Z,1.40
2022-08-03T03:28:54.485Z,1.60
2022-08-03T03:29:54.483Z,1.40
2022-08-03T03:30:54.469Z,1.40
2022-08-03T03:31:54.465Z,1.40
2022-08-03T03:32:54.474Z,1.50
2022-08-03T03:33:54.438Z,1.30
2022-08-03T03:34:54.430Z,1.30
2022-08-03T03:35:54.437Z,1.20
2022-08-03T03:36:54.410Z,1.40
2022-08-03T03:37:54.430Z,1.20
2022-08-03T03:38:54.399Z,1.40
2022-08-03T03:39:54.371Z,1.40
2022-08-03T03:40:54.350Z,1.40
2022-08-03T03:41:54.353Z,1.60
2022-08-03T03:42:54.349Z,1.60
2022-08-03T03:43:54.342Z,1.40
2022-08-03T03:44:54.311Z,1.40
2022-08-03T03:45:54.314Z,1.40
2022-08-03T03:46:54.302Z,1.30
2022-08-03T03:47:54.292Z,1.60
2022-08-03T03:48:54.290Z,1.50
2022-08-03T03:49:54.263Z,1.70
2022-08-03T03:50:54.237Z,1.30
2022-08-03T03:51:54.234Z,1.40
2022-08-03T03:52:54.229Z,1.50
2022-08-03T03:53:54.214Z,1.10
2022-08-03T03:54:57.580Z,1.40
2022-08-03T03:56:01.207Z,1.50
2022-08-03T03:56:55.176Z,1.50
2022-08-03T03:57:54.178Z,1.30
2022-08-03T03:58:54.173Z,1.40
2022-08-03T03:59:54.137Z,1.30
2022-08-03T04:00:54.311Z,1.50
2022-08-03T04:01:59.012Z,1.50
2022-08-03T04:02:55.120Z,1.40
2022-08-03T04:03:55.048Z,1.70
2022-08-03T04:04:54.094Z,1.40
2022-08-03T04:05:54.079Z,1.80
2022-08-03T04:06:54.059Z,1.50
2022-08-03T04:07:54.060Z,1.60
2022-08-03T04:08:54.030Z,1.50
2022-08-03T04:09:54.030Z,1.50
2022-08-03T04:10:54.013Z,1.30
2022-08-03T04:11:54.013Z,1.70
2022-08-03T04:12:53.983Z,1.20
2022-08-03T04:13:53.983Z,1.70
2022-08-03T04:14:53.962Z,1.50
2022-08-03T04:15:53.961Z,1.60
2022-08-03T04:16:53.953Z,1.50
2022-08-03T04:17:53.933Z,1.60
2022-08-03T04:18:53.923Z,1.30
2022-08-03T04:19:53.914Z,1.60
2022-08-03T04:20:53.899Z,1.50
2022-08-03T04:21:53.911Z,1.40
2022-08-03T04:22:53.875Z,1.40
2022-08-03T04:23:53.866Z,1.50
2022-08-03T04:24:53.848Z,1.60
2022-08-03T04:25:53.845Z,1.40
2022-08-03T04:26:53.837Z,1.50
2022-08-03T04:28:08.204Z,1.40
2022-08-03T04:28:54.807Z,1.30
2022-08-03T04:29:53.798Z,1.80
2022-08-03T04:30:53.818Z,1.30
2022-08-03T04:31:53.789Z,1.60
2022-08-03T04:32:53.763Z,1.50
2022-08-03T04:33:53.759Z,1.80
2022-08-03T04:34:53.733Z,1.70
2022-08-03T04:36:01.906Z,1.60
2022-08-03T04:36:54.727Z,1.40
2022-08-03T04:37:53.720Z,1.50
2022-08-03T04:38:53.694Z,1.50
2022-08-03T04:39:53.682Z,1.60
2022-08-03T04:40:53.672Z,1.40
2022-08-03T04:42:02.341Z,1.50
2022-08-03T04:42:54.643Z,1.70
2022-08-03T04:43:53.643Z,1.50
2022-08-03T04:44:57.663Z,1.60
2022-08-03T04:45:54.614Z,1.30
2022-08-03T04:46:53.615Z,1.40
2022-08-03T04:47:53.595Z,1.60
2022-08-03T04:48:53.673Z,1.80
2022-08-03T04:49:53.568Z,1.50
2022-08-03T04:50:53.564Z,1.50
2022-08-03T04:51:53.558Z,1.50
2022-08-03T04:52:53.542Z,1.40
2022-08-03T04:53:53.519Z,1.30
2022-08-03T04:54:53.517Z,1.40
2022-08-03T04:55:53.498Z,1.50
2022-08-03T04:56:53.515Z,1.60
2022-08-03T04:57:53.478Z,1.60
2022-08-03T04:58:53.469Z,1.40
2022-08-03T04:59:56.862Z,1.40
2022-08-03T05:00:54.448Z,1.30
2022-08-03T05:01:53.490Z,1.60
2022-08-03T05:02:53.429Z,1.40
2022-08-03T05:03:53.411Z,1.30
2022-08-03T05:04:53.403Z,1.60
2022-08-03T05:05:53.393Z,1.30
2022-08-03T05:06:55.214Z,1.30
2022-08-03T05:07:53.362Z,1.70
2022-08-03T05:08:53.364Z,1.40
2022-08-03T05:10:01.705Z,1.50
2022-08-03T05:10:54.334Z,1.30
2022-08-03T05:11:53.334Z,1.40
2022-08-03T05:12:53.315Z,1.40
2022-08-03T05:13:53.295Z,1.40
2022-08-03T05:14:53.294Z,1.40
2022-08-03T05:15:53.310Z,1.60
2022-08-03T05:16:53.285Z,1.40
2022-08-03T05:17:53.264Z,1.40
2022-08-03T05:18:53.248Z,1.60
2022-08-03T05:19:53.228Z,1.60
2022-08-03T05:20:53.218Z,1.40
2022-08-03T05:21:53.219Z,1.40
2022-08-03T05:22:53.199Z,1.50
2022-08-03T05:23:53.190Z,1.40
2022-08-03T05:24:53.179Z,1.70
2022-08-03T05:25:53.159Z,1.60
2022-08-03T05:26:53.170Z,1.50
2022-08-03T05:27:53.140Z,1.40
2022-08-03T05:28:53.139Z,1.40
2022-08-03T05:29:53.119Z,1.60
2022-08-03T05:30:53.112Z,1.60
2022-08-03T05:31:53.102Z,1.30
2022-08-03T05:32:53.092Z,1.40
2022-08-03T05:33:53.074Z,1.70
2022-08-03T05:34:53.072Z,1.50
2022-08-03T05:35:55.843Z,1.50
2022-08-03T05:36:54.054Z,1.50
2022-08-03T05:37:54.571Z,1.50
2022-08-03T05:38:53.025Z,1.50
2022-08-03T05:39:53.006Z,1.60
2022-08-03T05:40:57.332Z,1.60
2022-08-03T05:41:53.998Z,1.50
2022-08-03T05:42:52.977Z,1.70
2022-08-03T05:43:52.967Z,1.50
2022-08-03T05:44:52.968Z,1.40
2022-08-03T05:46:11.918Z,1.40
2022-08-03T05:46:53.972Z,1.40
2022-08-03T05:47:52.918Z,1.50
2022-08-03T05:48:52.984Z,1.50
2022-08-03T05:49:52.899Z,1.60
2022-08-03T05:50:52.889Z,1.60
2022-08-03T05:52:00.276Z,1.40
2022-08-03T05:52:53.896Z,1.60
2022-08-03T05:53:52.865Z,1.50
2022-08-03T05:54:57.408Z,1.40
2022-08-03T05:55:56.949Z,1.50
2022-08-03T05:56:53.830Z,1.40
2022-08-03T05:57:52.802Z,1.20
2022-08-03T05:58:52.792Z,1.50
2022-08-03T05:59:54.730Z,1.40
2022-08-03T06:00:53.776Z,1.20
2022-08-03T06:01:52.895Z,1.40
2022-08-03T06:02:52.751Z,1.20
2022-08-03T06:03:52.740Z,1.30
2022-08-03T06:04:52.735Z,1.90
2022-08-03T06:06:00.076Z,1.60
2022-08-03T06:06:53.745Z,1.60
2022-08-03T06:07:52.686Z,1.60
2022-08-03T06:08:52.687Z,1.50
2022-08-03T06:10:33.821Z,1.40
2022-08-03T06:10:53.661Z,1.50
2022-08-03T06:11:52.660Z,1.60
2022-08-03T06:12:52.646Z,1.30
2022-08-03T06:13:52.618Z,1.70
2022-08-03T06:14:52.609Z,1.50
2022-08-03T06:15:52.599Z,1.40
2022-08-03T06:16:52.601Z,1.40
2022-08-03T06:17:52.576Z,1.30
2022-08-03T06:18:52.570Z,1.50
2022-08-03T06:19:52.555Z,1.60
2022-08-03T06:20:52.595Z,1.40
2022-08-03T06:21:52.530Z,1.50
2022-08-03T06:23:00.333Z,1.40
2022-08-03T06:23:55.494Z,1.40
2022-08-03T06:24:53.762Z,1.40
2022-08-03T06:25:52.494Z,1.40
2022-08-03T06:26:52.480Z,1.30
2022-08-03T06:27:52.454Z,1.50
2022-08-03T06:28:54.159Z,1.50
2022-08-03T06:29:52.442Z,1.40
2022-08-03T06:30:52.447Z,1.50
2022-08-03T06:31:52.415Z,1.40
2022-08-03T06:32:52.644Z,1.40
2022-08-03T06:34:32.195Z,1.40
2022-08-03T06:34:53.386Z,1.30
2022-08-03T06:35:52.387Z,1.30
2022-08-03T06:36:52.874Z,1.60
2022-08-03T06:37:52.347Z,1.50
2022-08-03T06:38:52.339Z,1.30
2022-08-03T06:39:52.328Z,1.20
2022-08-03T06:40:52.330Z,1.40
2022-08-03T06:41:52.298Z,1.50
2022-08-03T06:42:53.237Z,1.60
2022-08-03T06:44:03.079Z,1.30
2022-08-03T06:44:53.281Z,1.30
2022-08-03T06:45:52.278Z,1.40
2022-08-03T06:46:52.255Z,1.40
2022-08-03T06:47:52.241Z,1.50
2022-08-03T06:48:52.265Z,1.40
2022-08-03T06:50:16.467Z,1.40
2022-08-03T06:50:53.212Z,1.30
2022-08-03T06:52:04.147Z,1.50
2022-08-03T06:52:53.181Z,1.60
2022-08-03T06:53:52.174Z,1.30
2022-08-03T06:54:52.154Z,1.30
2022-08-03T06:55:54.634Z,1.20
2022-08-03T06:56:52.137Z,1.40
2022-08-03T06:57:52.142Z,1.50
2022-08-03T06:58:52.108Z,1.50
2022-08-03T07:00:08.645Z,1.20
2022-08-03T07:00:53.105Z,1.40
2022-08-03T07:01:52.161Z,1.20
2022-08-03T07:02:57.647Z,1.40
2022-08-03T07:03:53.047Z,1.50
2022-08-03T07:04:52.047Z,1.40
2022-08-03T07:05:52.039Z,1.40
2022-08-03T07:06:52.018Z,1.30
2022-08-03T07:07:52.019Z,1.40
2022-08-03T07:08:55.425Z,1.40
2022-08-03T07:09:56.804Z,1.40
2022-08-03T07:10:52.999Z,1.40
2022-08-03T07:11:51.961Z,1.40
2022-08-03T07:12:56.194Z,1.30
2022-08-03T07:13:51.933Z,1.40
2022-08-03T07:14:53.104Z,1.40
2022-08-03T07:15:55.304Z,1.30
2022-08-03T07:16:51.903Z,1.40
2022-08-03T07:17:51.893Z,1.50
2022-08-03T07:18:51.894Z,1.40
2022-08-03T07:19:51.874Z,1.30
2022-08-03T07:20:51.884Z,1.50
2022-08-03T07:21:51.855Z,1.70
2022-08-03T07:22:51.835Z,1.40
2022-08-03T07:23:51.820Z,1.50
2022-08-03T07:24:51.826Z,1.30
2022-08-03T07:25:51.816Z,1.60
2022-08-03T07:26:51.795Z,1.30
2022-08-03T07:27:51.923Z,1.50
2022-08-03T07:28:51.777Z,1.50
2022-08-03T07:29:51.757Z,1.50
2022-08-03T07:30:51.763Z,1.40
2022-08-03T07:31:51.739Z,1.40
2022-08-03T07:32:51.722Z,1.40
2022-08-03T07:33:51.708Z,1.30
2022-08-03T07:34:51.774Z,1.20
2022-08-03T07:35:51.713Z,1.70
2022-08-03T07:36:51.677Z,1.40
2022-08-03T07:37:54.677Z,1.40
2022-08-03T07:38:51.659Z,1.40
2022-08-03T07:39:51.639Z,1.40
2022-08-03T07:40:51.662Z,1.60
2022-08-03T07:41:51.636Z,1.30
2022-08-03T07:42:52.110Z,1.40
2022-08-03T07:43:51.593Z,1.50
2022-08-03T07:44:51.584Z,1.40
2022-08-03T07:45:51.583Z,1.30
2022-08-03T07:46:51.567Z,1.20
2022-08-03T07:47:53.528Z,1.40
2022-08-03T07:48:51.546Z,1.60
2022-08-03T07:49:51.525Z,1.20
2022-08-03T07:50:51.527Z,1.40
2022-08-03T07:51:51.505Z,1.60
2022-08-03T07:52:51.500Z,1.30
2022-08-03T07:53:51.476Z,1.30
2022-08-03T07:54:51.488Z,1.20
2022-08-03T07:55:51.475Z,1.60
2022-08-03T07:56:51.449Z,1.30
2022-08-03T07:57:51.450Z,1.50
2022-08-03T07:58:51.427Z,1.30
2022-08-03T08:00:01.460Z,1.30
2022-08-03T08:00:52.449Z,1.30
2022-08-03T08:01:51.464Z,1.30
2022-08-03T08:02:51.380Z,1.50
2022-08-03T08:03:53.290Z,1.30
2022-08-03T08:04:51.363Z,1.20
2022-08-03T08:05:51.360Z,1.50
2022-08-03T08:06:51.342Z,1.30
2022-08-03T08:07:51.869Z,1.40
2022-08-03T08:08:51.317Z,1.30
2022-08-03T08:09:51.299Z,1.30
2022-08-03T08:10:57.734Z,1.10
2022-08-03T08:11:52.273Z,1.20
2022-08-03T08:12:51.278Z,1.20
2022-08-03T08:13:51.296Z,1.70
2022-08-03T08:14:51.274Z,1.30
2022-08-03T08:15:51.243Z,1.30
2022-08-03T08:16:51.234Z,1.70
2022-08-03T08:17:51.205Z,3.00
2022-08-03T08:18:51.228Z,3.20
2022-08-03T08:19:51.562Z,5.60
2022-08-03T08:20:51.185Z,8.90
2022-08-03T08:21:53.077Z,10.20
2022-08-03T08:22:52.157Z,11.40
2022-08-03T08:23:55.635Z,12.30
2022-08-03T08:24:52.178Z,13.40
2022-08-03T08:25:51.134Z,12.50
2022-08-03T08:26:51.120Z,12.80
2022-08-03T08:28:29.548Z,13.10
2022-08-03T08:28:52.089Z,14.00
2022-08-03T08:29:53.084Z,13.50
2022-08-03T08:30:52.095Z,12.10
2022-08-03T08:31:51.050Z,12.30
2022-08-03T08:32:51.061Z,13.40
2022-08-03T08:34:06.415Z,12.30
2022-08-03T08:34:52.031Z,12.50
2022-08-03T08:35:51.004Z,13.00
2022-08-03T08:36:51.007Z,13.00
2022-08-03T08:37:51.486Z,12.80
2022-08-03T08:38:50.973Z,12.30
2022-08-03T08:39:50.974Z,11.40
2022-08-03T08:40:50.967Z,11.20
2022-08-03T08:41:53.271Z,10.80
2022-08-03T08:42:58.270Z,11.90
2022-08-03T08:43:51.914Z,11.00
2022-08-03T08:44:50.928Z,10.90
2022-08-03T08:45:50.893Z,10.80
2022-08-03T08:46:50.887Z,10.30
2022-08-03T08:47:52.664Z,10.50
2022-08-03T08:48:50.866Z,10.70
2022-08-03T08:50:08.914Z,10.00
2022-08-03T08:50:51.837Z,9.70
2022-08-03T08:51:59.583Z,9.80
2022-08-03T08:52:51.848Z,9.10
2022-08-03T08:53:50.808Z,9.00
2022-08-03T08:54:50.808Z,9.70
2022-08-03T08:55:58.351Z,9.80
2022-08-03T08:56:51.775Z,8.80
2022-08-03T08:57:50.751Z,8.80
2022-08-03T08:58:50.761Z,9.60
2022-08-03T08:59:52.503Z,7.90
2022-08-03T09:00:51.770Z,9.00
2022-08-03T09:01:50.710Z,9.20
2022-08-03T09:02:50.701Z,8.90
2022-08-03T09:03:50.698Z,7.80
2022-08-03T09:04:50.702Z,7.50
2022-08-03T09:05:57.776Z,7.50
2022-08-03T09:07:17.637Z,8.20
2022-08-03T09:07:51.652Z,8.50
2022-08-03T09:08:50.635Z,8.30
2022-08-03T09:10:10.948Z,9.00
2022-08-03T09:10:51.604Z,7.90
2022-08-03T09:11:53.434Z,8.40
2022-08-03T09:12:51.591Z,7.50
2022-08-03T09:13:50.576Z,7.90
2022-08-03T09:15:14.844Z,7.50
2022-08-03T09:16:00.960Z,7.30
2022-08-03T09:16:51.538Z,8.90
2022-08-03T09:17:51.450Z,7.90
2022-08-03T09:18:50.517Z,7.20
2022-08-03T09:20:02.826Z,7.60
2022-08-03T09:20:51.489Z,6.60
2022-08-03T09:21:50.485Z,7.60
2022-08-03T09:22:50.469Z,7.00
2022-08-03T09:24:01.962Z,7.10
2022-08-03T09:25:08.725Z,7.30
2022-08-03T09:25:51.442Z,7.70
2022-08-03T09:26:50.420Z,6.20
2022-08-03T09:27:50.412Z,7.20
2022-08-03T09:29:00.777Z,7.30
2022-08-03T09:29:51.401Z,6.40
2022-08-03T09:30:50.383Z,6.00
2022-08-03T09:31:50.383Z,6.20
2022-08-03T09:32:50.353Z,6.40
2022-08-03T09:33:50.352Z,6.20
2022-08-03T09:34:50.343Z,6.00
2022-08-03T09:35:54.835Z,6.20
2022-08-03T09:36:51.336Z,6.60
2022-08-03T09:38:12.213Z,6.50
2022-08-03T09:38:51.299Z,6.10
2022-08-03T09:39:50.293Z,6.00
2022-08-03T09:40:50.364Z,5.90
2022-08-03T09:41:50.257Z,6.80
2022-08-03T09:42:50.249Z,5.50
2022-08-03T09:43:50.226Z,6.00
2022-08-03T09:44:50.254Z,6.40
2022-08-03T09:45:50.222Z,6.80
2022-08-03T09:46:51.142Z,6.20
2022-08-03T09:47:50.189Z,5.50
2022-08-03T09:48:50.190Z,5.80
2022-08-03T09:49:50.189Z,6.00
2022-08-03T09:50:58.688Z,5.80
2022-08-03T09:52:32.976Z,6.00
2022-08-03T09:52:52.626Z,5.40
2022-08-03T09:53:57.217Z,6.30
2022-08-03T09:54:51.121Z,5.30
2022-08-03T09:56:34.685Z,5.40
2022-08-03T09:56:51.082Z,5.80
2022-08-03T09:57:50.079Z,5.70
2022-08-03T09:58:50.061Z,5.60
2022-08-03T09:59:50.086Z,5.80
2022-08-03T10:00:50.102Z,5.60
2022-08-03T10:01:50.042Z,5.60
2022-08-03T10:02:50.013Z,4.10
2022-08-03T10:04:04.066Z,5.60
2022-08-03T10:04:51.004Z,5.50
2022-08-03T10:05:49.990Z,5.60
2022-08-03T10:06:49.975Z,5.10
2022-08-03T10:07:49.975Z,4.60
2022-08-03T10:08:49.969Z,5.30
2022-08-03T10:09:49.976Z,4.30
2022-08-03T10:10:49.926Z,5.30
2022-08-03T10:11:49.916Z,4.60
2022-08-03T10:12:49.907Z,4.50
2022-08-03T10:13:49.898Z,4.10
2022-08-03T10:14:49.909Z,4.20
2022-08-03T10:16:23.718Z,4.50
2022-08-03T10:16:50.871Z,3.70
2022-08-03T10:17:49.849Z,5.00
2022-08-03T10:18:49.828Z,4.70
2022-08-03T10:19:50.056Z,4.00
2022-08-03T10:20:49.810Z,4.90
2022-08-03T10:21:49.831Z,4.70
2022-08-03T10:22:49.792Z,4.80
2022-08-03T10:23:49.820Z,4.60
2022-08-03T10:24:49.781Z,5.40
2022-08-03T10:25:49.793Z,4.00
2022-08-03T10:26:50.371Z,4.00
2022-08-03T10:27:49.763Z,3.30
2022-08-03T10:28:49.715Z,4.30
2022-08-03T10:29:49.724Z,4.30
2022-08-03T10:30:49.730Z,4.00
2022-08-03T10:31:57.874Z,3.80
2022-08-03T10:32:50.703Z,4.70
2022-08-03T10:33:53.046Z,4.10
2022-08-03T10:34:50.195Z,4.10
2022-08-03T10:35:49.650Z,3.70
2022-08-03T10:36:49.660Z,4.30
2022-08-03T10:37:56.995Z,3.70
2022-08-03T10:38:50.606Z,3.30
2022-08-03T10:39:49.631Z,3.20
2022-08-03T10:40:52.545Z,3.20
2022-08-03T10:41:50.584Z,2.90
2022-08-03T10:42:49.575Z,3.10
2022-08-03T10:43:49.609Z,3.10
2022-08-03T10:44:49.579Z,3.40
2022-08-03T10:45:49.543Z,3.00
2022-08-03T10:46:49.558Z,3.40
2022-08-03T10:47:49.526Z,3.20
2022-08-03T10:48:49.510Z,3.00
2022-08-03T10:49:49.564Z,3.70
2022-08-03T10:50:49.479Z,3.10
2022-08-03T10:51:54.444Z,2.80
2022-08-03T10:52:50.507Z,3.10
2022-08-03T10:53:54.777Z,2.80
2022-08-03T10:54:50.503Z,3.10
2022-08-03T10:55:49.456Z,3.40
2022-08-03T10:56:49.859Z,3.20
2022-08-03T10:57:49.743Z,3.40
2022-08-03T10:58:56.986Z,3.20
2022-08-03T10:59:50.414Z,3.40
2022-08-03T11:00:49.445Z,2.80
2022-08-03T11:01:59.920Z,3.10
2022-08-03T11:02:50.376Z,2.90
2022-08-03T11:03:49.358Z,2.90
2022-08-03T11:04:49.337Z,2.80
2022-08-03T11:05:49.522Z,2.70
2022-08-03T11:06:49.326Z,2.90
2022-08-03T11:07:53.121Z,3.30
2022-08-03T11:08:50.279Z,2.70
2022-08-03T11:09:49.286Z,2.50
2022-08-03T11:10:49.260Z,2.50
2022-08-03T11:11:49.323Z,2.40
2022-08-03T11:12:49.240Z,2.00
2022-08-03T11:13:49.261Z,2.60
2022-08-03T11:14:49.224Z,2.30
2022-08-03T11:15:49.212Z,3.30
2022-08-03T11:16:49.191Z,2.50
2022-08-03T11:17:56.162Z,2.90
2022-08-03T11:18:50.190Z,3.00
2022-08-03T11:19:57.926Z,2.60
2022-08-03T11:20:50.153Z,2.60
2022-08-03T11:21:49.140Z,3.00
2022-08-03T11:22:49.195Z,2.80
2022-08-03T11:24:02.850Z,2.90
2022-08-03T11:24:50.104Z,2.00
2022-08-03T11:25:54.988Z,2.30
2022-08-03T11:26:50.084Z,2.80
2022-08-03T11:27:49.105Z,2.60
2022-08-03T11:28:49.090Z,2.30
2022-08-03T11:29:49.054Z,2.70
2022-08-03T11:30:49.038Z,2.60
2022-08-03T11:31:51.615Z,2.40
2022-08-03T11:32:49.201Z,2.80
2022-08-03T11:33:49.027Z,2.50
2022-08-03T11:34:48.994Z,2.40
2022-08-03T11:35:48.989Z,2.40
2022-08-03T11:36:48.988Z,2.20
2022-08-03T11:38:01.417Z,1.80
2022-08-03T11:38:49.969Z,2.70
2022-08-03T11:39:48.949Z,2.10
2022-08-03T11:40:48.933Z,2.40
2022-08-03T11:41:48.920Z,2.00
2022-08-03T11:42:48.912Z,2.00
2022-08-03T11:43:48.911Z,2.40
2022-08-03T11:44:48.895Z,2.20
2022-08-03T11:45:48.882Z,2.10
2022-08-03T11:46:48.862Z,2.30
2022-08-03T11:47:51.082Z,2.00
2022-08-03T11:48:48.863Z,2.30
2022-08-03T11:49:48.843Z,2.30
2022-08-03T11:50:48.824Z,1.90
2022-08-03T11:51:48.816Z,2.20
2022-08-03T11:52:48.804Z,2.40
2022-08-03T11:53:48.805Z,2.20
2022-08-03T11:54:48.775Z,2.40
2022-08-03T11:55:49.768Z,2.10
2022-08-03T11:56:48.766Z,3.00
2022-08-03T11:58:58.058Z,2.40
2022-08-03T11:59:10.650Z,2.40
2022-08-03T11:59:49.728Z,2.20
2022-08-03T12:00:48.718Z,2.50
2022-08-03T12:01:48.709Z,2.00
2022-08-03T12:02:48.769Z,2.10
2022-08-03T12:03:48.700Z,2.10
2022-08-03T12:04:48.677Z,2.00
2022-08-03T12:05:52.169Z,2.00
2022-08-03T12:06:48.661Z,2.50
2022-08-03T12:08:04.888Z,2.20
2022-08-03T12:08:49.641Z,2.30
2022-08-03T12:09:48.622Z,2.20
2022-08-03T12:10:48.615Z,2.10
2022-08-03T12:11:55.772Z,1.90
2022-08-03T12:12:49.603Z,2.20
2022-08-03T12:14:45.120Z,2.20
2022-08-03T12:14:52.145Z,1.80
2022-08-03T12:15:48.543Z,1.90
2022-08-03T12:16:48.543Z,2.20
2022-08-03T12:17:48.533Z,1.90
2022-08-03T12:18:48.524Z,2.00
2022-08-03T12:19:48.506Z,2.50
2022-08-03T12:20:48.496Z,2.10
2022-08-03T12:21:57.098Z,1.70
2022-08-03T12:22:49.504Z,2.10
2022-08-03T12:23:48.486Z,2.10
2022-08-03T12:24:48.457Z,2.30
2022-08-03T12:25:49.564Z,2.30
2022-08-03T12:26:58.338Z,2.10
2022-08-03T12:27:49.418Z,1.70
2022-08-03T12:28:49.945Z,1.70
2022-08-03T12:29:58.773Z,1.90
2022-08-03T12:30:49.389Z,2.10
2022-08-03T12:31:48.389Z,2.10
2022-08-03T12:32:48.381Z,2.00
2022-08-03T12:33:48.371Z,1.90
2022-08-03T12:34:48.341Z,1.70
2022-08-03T12:35:52.084Z,2.00
2022-08-03T12:36:48.340Z,1.90
2022-08-03T12:37:48.331Z,1.90
2022-08-03T12:38:48.450Z,1.80
2022-08-03T12:40:02.981Z,1.80
2022-08-03T12:40:49.283Z,2.00
2022-08-03T12:41:48.272Z,1.60
2022-08-03T12:42:48.274Z,1.80
2022-08-03T12:43:48.245Z,1.80
2022-08-03T12:44:48.245Z,1.90
2022-08-03T12:45:49.225Z,2.10
2022-08-03T12:46:48.341Z,1.80
2022-08-03T12:47:48.215Z,1.70
2022-08-03T12:48:48.262Z,1.70
2022-08-03T12:49:48.177Z,1.90
2022-08-03T12:50:48.166Z,2.00
2022-08-03T12:51:49.178Z,1.60
2022-08-03T12:52:48.167Z,2.10
2022-08-03T12:53:48.173Z,1.80
2022-08-03T12:54:48.147Z,2.00
2022-08-03T12:56:05.263Z,1.90
2022-08-03T12:56:49.109Z,1.80
2022-08-03T12:57:48.109Z,1.70
2022-08-03T12:58:48.080Z,1.60
2022-08-03T12:59:53.359Z,2.00
2022-08-03T13:00:49.062Z,2.00
2022-08-03T13:01:54.978Z,1.80
2022-08-03T13:03:05.443Z,2.00
2022-08-03T13:03:50.454Z,2.00
2022-08-03T13:04:48.032Z,1.90
2022-08-03T13:05:48.015Z,1.80
2022-08-03T13:06:47.992Z,1.70
2022-08-03T13:07:49.015Z,1.70
2022-08-03T13:08:47.996Z,1.70
2022-08-03T13:09:47.983Z,2.00
2022-08-03T13:10:47.947Z,1.70
2022-08-03T13:11:57.694Z,1.80
2022-08-03T13:12:48.946Z,1.70
2022-08-03T13:13:47.929Z,1.70
2022-08-03T13:14:47.905Z,1.60
2022-08-03T13:15:48.407Z,2.00
2022-08-03T13:16:47.902Z,1.60
2022-08-03T13:17:47.896Z,1.40
2022-08-03T13:18:48.047Z,1.90